KCIR

Details ICAO KCIR
Name CAIRO RGNL
Region United States
Timezone America/Chicago (UTC-6.0)
Plans Departing 0
Arriving 4
Stats Elevation 321 ft / 98 m (AMSL)
Location 37.064101° -89.219373°
Runways 2
Magnetic Variation 2.099° W
Sunrise 2017-12-17 13:05:53 UTC / 2017-12-17 07:05:53 Local
Sunset 2017-12-17 22:43:05 UTC / 2017-12-17 16:43:05 Local
Advertisement - Login to hide

Runways

ID Width Length Bearing (true) Bearing (mag) Surface Threshold Offset Overrun Length
02 60 ft / 18 m 3,206 ft / 977 m 21.30° 23.40° Asphalt 0 ft / 0 m 0 ft / 0 m
14 100 ft / 30 m 4,057 ft / 1,237 m 140.63° 142.73° Asphalt 0 ft / 0 m 0 ft / 0 m
20 60 ft / 18 m 3,206 ft / 977 m 201.30° 203.40° Asphalt 0 ft / 0 m 0 ft / 0 m
32 100 ft / 30 m 4,057 ft / 1,237 m 320.64° 322.74° Asphalt 0 ft / 0 m 0 ft / 0 m

Map

Weather


0- 5 10 15 20 25 30 35+ Temperature / ° C

Clouds and Precipitation
Forecast for 2017-12-18 06:00 UTC. Updated 2 hours ago

Ground ~20,000 ft ~40,000 ft Winds

METAR

KCIR 180435Z AUTO 22004KT 7SM OVC007 07/06 A3013 RMK AO2 T00700064

TAF

Not found

Frequencies

Recorded 118.02 MHz AWOS 3
Unicom 122.80 MHz CTAF/UNICOM
Warning: Do not use this data for real-world aviation or navigation. No guarantee of current accuracy is given.